sensor_id;sensor_type;location;lat;lon;timestamp;P1;P2;P0
55449;PMS5003;41318;58.724;50.180;2023-03-17T00:00:18;14.00;13.40;7.60
55449;PMS5003;41318;58.724;50.180;2023-03-17T00:02:49;13.20;13.20;8.40
55449;PMS5003;41318;58.724;50.180;2023-03-17T00:05:22;7.00;7.00;5.60
55449;PMS5003;41318;58.724;50.180;2023-03-17T00:07:53;8.40;7.80;5.60
55449;PMS5003;41318;58.724;50.180;2023-03-17T00:10:25;9.80;9.80;6.20
55449;PMS5003;41318;58.724;50.180;2023-03-17T00:12:56;6.20;6.20;3.60
55449;PMS5003;41318;58.724;50.180;2023-03-17T00:15:27;6.00;6.00;3.25
55449;PMS5003;41318;58.724;50.180;2023-03-17T00:17:59;8.60;8.60;7.00
55449;PMS5003;41318;58.724;50.180;2023-03-17T00:20:30;6.80;6.80;4.00
55449;PMS5003;41318;58.724;50.180;2023-03-17T00:23:01;7.20;7.20;5.60
55449;PMS5003;41318;58.724;50.180;2023-03-17T00:25:36;10.20;10.20;6.60
55449;PMS5003;41318;58.724;50.180;2023-03-17T00:28:28;9.40;8.60;7.00
55449;PMS5003;41318;58.724;50.180;2023-03-17T00:30:59;12.40;12.40;8.00
55449;PMS5003;41318;58.724;50.180;2023-03-17T00:33:31;18.60;18.60;11.60
55449;PMS5003;41318;58.724;50.180;2023-03-17T00:36:04;12.40;11.00;10.00
55449;PMS5003;41318;58.724;50.180;2023-03-17T00:38:36;9.00;9.00;5.80
55449;PMS5003;41318;58.724;50.180;2023-03-17T00:41:07;8.40;7.00;4.40
55449;PMS5003;41318;58.724;50.180;2023-03-17T00:43:39;28.20;24.00;18.00
55449;PMS5003;41318;58.724;50.180;2023-03-17T00:46:11;19.60;19.60;14.40
55449;PMS5003;41318;58.724;50.180;2023-03-17T00:48:44;12.40;12.40;8.60
55449;PMS5003;41318;58.724;50.180;2023-03-17T00:51:15;26.40;25.80;18.00
55449;PMS5003;41318;58.724;50.180;2023-03-17T00:53:46;32.00;30.60;23.00
55449;PMS5003;41318;58.724;50.180;2023-03-17T00:56:18;42.80;36.40;24.00
55449;PMS5003;41318;58.724;50.180;2023-03-17T00:58:50;51.60;44.00;27.60
55449;PMS5003;41318;58.724;50.180;2023-03-17T01:01:21;45.80;40.80;26.40
55449;PMS5003;41318;58.724;50.180;2023-03-17T01:03:52;49.50;42.50;26.50
55449;PMS5003;41318;58.724;50.180;2023-03-17T01:06:23;38.20;35.80;24.20
55449;PMS5003;41318;58.724;50.180;2023-03-17T01:08:54;47.00;41.60;24.60
55449;PMS5003;41318;58.724;50.180;2023-03-17T01:11:44;29.40;28.80;19.40
55449;PMS5003;41318;58.724;50.180;2023-03-17T01:14:15;32.40;32.40;20.80
55449;PMS5003;41318;58.724;50.180;2023-03-17T01:16:47;35.60;33.80;21.00
55449;PMS5003;41318;58.724;50.180;2023-03-17T01:19:18;32.80;31.80;23.20
55449;PMS5003;41318;58.724;50.180;2023-03-17T01:21:49;26.75;26.50;18.25
55449;PMS5003;41318;58.724;50.180;2023-03-17T01:24:20;15.00;15.00;11.40
55449;PMS5003;41318;58.724;50.180;2023-03-17T01:26:51;16.00;15.40;11.40
55449;PMS5003;41318;58.724;50.180;2023-03-17T01:29:22;14.80;14.80;11.20
55449;PMS5003;41318;58.724;50.180;2023-03-17T01:31:55;18.60;16.80;11.40
55449;PMS5003;41318;58.724;50.180;2023-03-17T01:34:26;18.00;16.80;11.00
55449;PMS5003;41318;58.724;50.180;2023-03-17T01:36:57;20.40;19.40;14.20
55449;PMS5003;41318;58.724;50.180;2023-03-17T01:39:29;32.80;29.00;18.20
55449;PMS5003;41318;58.724;50.180;2023-03-17T01:42:00;33.75;32.00;21.75
55449;PMS5003;41318;58.724;50.180;2023-03-17T01:44:32;24.20;23.20;12.00
55449;PMS5003;41318;58.724;50.180;2023-03-17T01:47:03;17.00;17.00;12.60
55449;PMS5003;41318;58.724;50.180;2023-03-17T01:49:34;17.80;17.40;12.40
55449;PMS5003;41318;58.724;50.180;2023-03-17T01:52:25;15.40;15.40;11.80
55449;PMS5003;41318;58.724;50.180;2023-03-17T01:55:16;14.00;14.00;11.20
55449;PMS5003;41318;58.724;50.180;2023-03-17T01:57:50;12.00;12.00;8.40
55449;PMS5003;41318;58.724;50.180;2023-03-17T02:00:26;12.00;12.00;9.20
55449;PMS5003;41318;58.724;50.180;2023-03-17T02:03:15;10.00;10.00;7.60
55449;PMS5003;41318;58.724;50.180;2023-03-17T02:05:49;11.00;10.40;7.20
55449;PMS5003;41318;58.724;50.180;2023-03-17T02:08:21;9.80;9.40;8.00
55449;PMS5003;41318;58.724;50.180;2023-03-17T02:10:52;13.00;12.80;11.00
55449;PMS5003;41318;58.724;50.180;2023-03-17T02:13:23;16.60;16.40;13.00
55449;PMS5003;41318;58.724;50.180;2023-03-17T02:15:57;13.40;13.40;11.00
55449;PMS5003;41318;58.724;50.180;2023-03-17T02:18:29;9.00;8.00;8.00
55449;PMS5003;41318;58.724;50.180;2023-03-17T02:21:40;8.80;8.80;7.00
55449;PMS5003;41318;58.724;50.180;2023-03-17T02:24:12;11.00;11.00;8.00
55449;PMS5003;41318;58.724;50.180;2023-03-17T02:26:47;14.20;13.40;8.40
55449;PMS5003;41318;58.724;50.180;2023-03-17T02:29:20;11.20;10.20;6.20
55449;PMS5003;41318;58.724;50.180;2023-03-17T02:31:52;12.80;12.80;8.40
55449;PMS5003;41318;58.724;50.180;2023-03-17T02:34:26;10.40;10.40;7.40
55449;PMS5003;41318;58.724;50.180;2023-03-17T02:36:57;10.60;10.60;7.60
55449;PMS5003;41318;58.724;50.180;2023-03-17T02:39:28;13.60;13.20;9.40
55449;PMS5003;41318;58.724;50.180;2023-03-17T02:42:00;6.20;6.20;3.80
55449;PMS5003;41318;58.724;50.180;2023-03-17T02:44:49;9.40;9.40;7.00
55449;PMS5003;41318;58.724;50.180;2023-03-17T02:47:22;10.80;10.60;7.20
55449;PMS5003;41318;58.724;50.180;2023-03-17T02:49:53;15.60;15.60;12.00
55449;PMS5003;41318;58.724;50.180;2023-03-17T02:52:24;11.40;11.40;8.00
55449;PMS5003;41318;58.724;50.180;2023-03-17T02:54:55;3.20;3.20;2.60
55449;PMS5003;41318;58.724;50.180;2023-03-17T02:57:26;13.00;12.80;9.20
55449;PMS5003;41318;58.724;50.180;2023-03-17T02:59:57;12.00;12.00;10.00
55449;PMS5003;41318;58.724;50.180;2023-03-17T03:02:28;11.40;11.40;9.20
55449;PMS5003;41318;58.724;50.180;2023-03-17T03:04:59;9.50;9.50;5.50
55449;PMS5003;41318;58.724;50.180;2023-03-17T03:07:30;9.40;9.40;7.00
55449;PMS5003;41318;58.724;50.180;2023-03-17T03:10:02;11.00;11.00;8.00
55449;PMS5003;41318;58.724;50.180;2023-03-17T03:12:33;12.20;12.00;9.40
55449;PMS5003;41318;58.724;50.180;2023-03-17T03:15:05;11.00;11.00;9.80
55449;PMS5003;41318;58.724;50.180;2023-03-17T03:17:36;12.20;12.20;8.60
55449;PMS5003;41318;58.724;50.180;2023-03-17T03:20:25;11.40;11.40;8.20
55449;PMS5003;41318;58.724;50.180;2023-03-17T03:22:57;11.60;11.60;8.80
55449;PMS5003;41318;58.724;50.180;2023-03-17T03:25:28;12.00;12.00;11.20
55449;PMS5003;41318;58.724;50.180;2023-03-17T03:27:59;7.25;7.25;6.25
55449;PMS5003;41318;58.724;50.180;2023-03-17T03:30:30;6.80;6.80;6.00
55449;PMS5003;41318;58.724;50.180;2023-03-17T03:33:01;6.25;6.25;4.50
55449;PMS5003;41318;58.724;50.180;2023-03-17T03:35:32;7.20;7.20;6.00
55449;PMS5003;41318;58.724;50.180;2023-03-17T03:38:04;39.60;35.00;23.20
55449;PMS5003;41318;58.724;50.180;2023-03-17T03:40:36;24.00;18.60;11.60
55449;PMS5003;41318;58.724;50.180;2023-03-17T03:43:07;9.20;9.20;6.40
55449;PMS5003;41318;58.724;50.180;2023-03-17T03:45:37;7.00;7.00;5.00
55449;PMS5003;41318;58.724;50.180;2023-03-17T03:48:09;7.80;7.80;6.40
55449;PMS5003;41318;58.724;50.180;2023-03-17T03:50:59;12.00;12.00;7.60
55449;PMS5003;41318;58.724;50.180;2023-03-17T03:53:31;8.00;8.00;7.00
55449;PMS5003;41318;58.724;50.180;2023-03-17T03:56:02;8.20;7.80;6.00
55449;PMS5003;41318;58.724;50.180;2023-03-17T03:58:34;12.60;12.00;7.40
55449;PMS5003;41318;58.724;50.180;2023-03-17T04:01:05;10.00;10.00;7.60
55449;PMS5003;41318;58.724;50.180;2023-03-17T04:03:37;12.00;11.20;8.00
55449;PMS5003;41318;58.724;50.180;2023-03-17T04:06:08;13.20;13.20;11.40
55449;PMS5003;41318;58.724;50.180;2023-03-17T04:08:40;12.00;12.00;10.00
55449;PMS5003;41318;58.724;50.180;2023-03-17T04:11:11;16.40;16.40;11.20
55449;PMS5003;41318;58.724;50.180;2023-03-17T04:13:42;20.60;17.80;11.20
55449;PMS5003;41318;58.724;50.180;2023-03-17T04:16:13;23.60;21.60;11.40
55449;PMS5003;41318;58.724;50.180;2023-03-17T04:18:44;27.20;25.20;16.20
55449;PMS5003;41318;58.724;50.180;2023-03-17T04:21:15;21.60;21.60;16.60
55449;PMS5003;41318;58.724;50.180;2023-03-17T04:23:48;23.80;23.80;17.00
55449;PMS5003;41318;58.724;50.180;2023-03-17T04:26:38;22.00;20.40;13.20
55449;PMS5003;41318;58.724;50.180;2023-03-17T04:29:09;17.50;17.50;13.00
55449;PMS5003;41318;58.724;50.180;2023-03-17T04:32:03;17.40;17.40;12.20
55449;PMS5003;41318;58.724;50.180;2023-03-17T04:34:34;12.60;12.40;8.60
55449;PMS5003;41318;58.724;50.180;2023-03-17T04:37:05;27.20;25.20;17.00
55449;PMS5003;41318;58.724;50.180;2023-03-17T04:39:37;23.80;23.00;14.80
55449;PMS5003;41318;58.724;50.180;2023-03-17T04:42:08;58.00;47.80;30.60
55449;PMS5003;41318;58.724;50.180;2023-03-17T04:44:39;47.20;41.40;26.20
55449;PMS5003;41318;58.724;50.180;2023-03-17T04:47:10;21.20;20.20;15.20
55449;PMS5003;41318;58.724;50.180;2023-03-17T04:49:41;23.40;23.00;17.60
55449;PMS5003;41318;58.724;50.180;2023-03-17T04:52:13;27.60;26.40;20.00
55449;PMS5003;41318;58.724;50.180;2023-03-17T04:54:43;34.50;33.50;21.50
55449;PMS5003;41318;58.724;50.180;2023-03-17T04:57:15;39.40;35.20;23.00
55449;PMS5003;41318;58.724;50.180;2023-03-17T04:59:46;50.20;42.00;26.60
55449;PMS5003;41318;58.724;50.180;2023-03-17T05:02:17;59.40;48.80;28.40
55449;PMS5003;41318;58.724;50.180;2023-03-17T05:04:48;57.80;46.80;28.20
55449;PMS5003;41318;58.724;50.180;2023-03-17T05:07:19;44.60;40.80;28.60
55449;PMS5003;41318;58.724;50.180;2023-03-17T05:09:50;56.80;47.20;29.20
55449;PMS5003;41318;58.724;50.180;2023-03-17T05:12:21;61.20;51.60;32.60
55449;PMS5003;41318;58.724;50.180;2023-03-17T05:14:52;64.00;52.75;33.50
55449;PMS5003;41318;58.724;50.180;2023-03-17T05:17:23;55.75;47.25;31.75
55449;PMS5003;41318;58.724;50.180;2023-03-17T05:19:54;71.20;56.60;36.40
55449;PMS5003;41318;58.724;50.180;2023-03-17T05:22:25;58.50;49.00;32.50
55449;PMS5003;41318;58.724;50.180;2023-03-17T05:24:56;45.20;39.60;27.80
55449;PMS5003;41318;58.724;50.180;2023-03-17T05:27:27;38.20;37.00;24.60
55449;PMS5003;41318;58.724;50.180;2023-03-17T05:29:59;47.80;42.00;26.80
55449;PMS5003;41318;58.724;50.180;2023-03-17T05:32:30;63.40;52.00;31.00
55449;PMS5003;41318;58.724;50.180;2023-03-17T05:35:01;60.20;48.60;29.00
55449;PMS5003;41318;58.724;50.180;2023-03-17T05:37:33;30.20;29.60;17.80
55449;PMS5003;41318;58.724;50.180;2023-03-17T05:40:04;31.80;30.60;20.40
55449;PMS5003;41318;58.724;50.180;2023-03-17T05:42:54;41.00;37.80;23.80
55449;PMS5003;41318;58.724;50.180;2023-03-17T05:45:43;28.60;28.20;23.60
55449;PMS5003;41318;58.724;50.180;2023-03-17T05:48:15;43.60;39.80;26.00
55449;PMS5003;41318;58.724;50.180;2023-03-17T05:54:23;51.40;43.20;26.20
55449;PMS5003;41318;58.724;50.180;2023-03-17T06:06:32;43.20;38.60;22.40
55449;PMS5003;41318;58.724;50.180;2023-03-17T06:09:26;35.80;33.20;24.40
55449;PMS5003;41318;58.724;50.180;2023-03-17T06:12:00;42.20;36.80;22.20
55449;PMS5003;41318;58.724;50.180;2023-03-17T06:15:09;36.40;33.60;19.60
55449;PMS5003;41318;58.724;50.180;2023-03-17T06:20:36;23.20;22.40;14.20
55449;PMS5003;41318;58.724;50.180;2023-03-17T06:23:09;15.80;14.60;10.00
55449;PMS5003;41318;58.724;50.180;2023-03-17T06:25:43;16.40;15.80;11.80
55449;PMS5003;41318;58.724;50.180;2023-03-17T06:28:17;14.20;14.00;13.60
55449;PMS5003;41318;58.724;50.180;2023-03-17T06:30:50;18.80;18.20;14.40
55449;PMS5003;41318;58.724;50.180;2023-03-17T06:33:23;59.60;49.60;29.00
55449;PMS5003;41318;58.724;50.180;2023-03-17T06:35:58;82.20;67.20;38.20
55449;PMS5003;41318;58.724;50.180;2023-03-17T06:38:32;39.00;37.00;23.00
55449;PMS5003;41318;58.724;50.180;2023-03-17T06:41:05;35.60;33.00;21.40
55449;PMS5003;41318;58.724;50.180;2023-03-17T06:43:58;31.00;28.80;20.80
55449;PMS5003;41318;58.724;50.180;2023-03-17T06:46:32;26.80;26.20;17.80
55449;PMS5003;41318;58.724;50.180;2023-03-17T06:49:05;25.20;25.20;17.00
55449;PMS5003;41318;58.724;50.180;2023-03-17T06:51:38;30.80;30.00;17.80
55449;PMS5003;41318;58.724;50.180;2023-03-17T07:16:33;14.80;14.80;10.40
55449;PMS5003;41318;58.724;50.180;2023-03-17T07:19:06;12.80;12.80;8.20
55449;PMS5003;41318;58.724;50.180;2023-03-17T07:21:37;11.00;11.00;9.40
55449;PMS5003;41318;58.724;50.180;2023-03-17T07:24:09;13.00;13.00;9.75
55449;PMS5003;41318;58.724;50.180;2023-03-17T07:26:40;28.00;23.00;14.00
55449;PMS5003;41318;58.724;50.180;2023-03-17T07:29:12;7.20;7.00;0.00
55449;PMS5003;41318;58.724;50.180;2023-03-17T07:31:44;33.20;32.60;22.60
55449;PMS5003;41318;58.724;50.180;2023-03-17T07:34:33;41.40;35.00;24.20
55449;PMS5003;41318;58.724;50.180;2023-03-17T07:37:05;30.00;29.00;20.00
55449;PMS5003;41318;58.724;50.180;2023-03-17T07:39:55;29.00;28.80;22.00
55449;PMS5003;41318;58.724;50.180;2023-03-17T07:42:26;29.40;28.00;21.00
55449;PMS5003;41318;58.724;50.180;2023-03-17T07:45:17;28.20;27.00;16.20
55449;PMS5003;41318;58.724;50.180;2023-03-17T07:47:49;46.75;41.75;27.25
55449;PMS5003;41318;58.724;50.180;2023-03-17T07:50:20;27.20;27.20;16.80
55449;PMS5003;41318;58.724;50.180;2023-03-17T07:52:51;55.00;46.40;31.40
55449;PMS5003;41318;58.724;50.180;2023-03-17T07:55:22;39.50;37.75;25.75
55449;PMS5003;41318;58.724;50.180;2023-03-17T07:57:53;26.40;26.40;19.80
55449;PMS5003;41318;58.724;50.180;2023-03-17T08:00:25;23.00;21.60;15.00
55449;PMS5003;41318;58.724;50.180;2023-03-17T08:02:57;14.00;14.00;10.00
55449;PMS5003;41318;58.724;50.180;2023-03-17T08:05:28;12.00;11.00;8.00
55449;PMS5003;41318;58.724;50.180;2023-03-17T08:07:59;12.40;12.40;9.00
55449;PMS5003;41318;58.724;50.180;2023-03-17T08:10:30;25.00;24.75;19.00
55449;PMS5003;41318;58.724;50.180;2023-03-17T08:13:01;38.60;37.00;25.60
55449;PMS5003;41318;58.724;50.180;2023-03-17T08:15:32;47.00;40.00;26.75
55449;PMS5003;41318;58.724;50.180;2023-03-17T08:18:02;31.75;30.50;18.50
55449;PMS5003;41318;58.724;50.180;2023-03-17T08:20:34;21.50;21.50;15.50
55449;PMS5003;41318;58.724;50.180;2023-03-17T08:23:05;28.20;27.40;19.20
55449;PMS5003;41318;58.724;50.180;2023-03-17T08:25:36;13.00;13.00;10.00
55449;PMS5003;41318;58.724;50.180;2023-03-17T08:28:08;2.20;2.20;1.20
55449;PMS5003;41318;58.724;50.180;2023-03-17T08:30:40;13.80;13.40;9.00
55449;PMS5003;41318;58.724;50.180;2023-03-17T08:33:12;12.80;12.80;8.80
55449;PMS5003;41318;58.724;50.180;2023-03-17T08:35:43;17.00;17.00;12.50
55449;PMS5003;41318;58.724;50.180;2023-03-17T08:38:14;14.40;14.40;11.40
55449;PMS5003;41318;58.724;50.180;2023-03-17T08:40:45;31.80;31.80;23.80
55449;PMS5003;41318;58.724;50.180;2023-03-17T08:43:19;13.00;12.00;9.00
55449;PMS5003;41318;58.724;50.180;2023-03-17T08:45:50;16.50;16.50;11.50
55449;PMS5003;41318;58.724;50.180;2023-03-17T08:48:21;10.50;10.50;8.00
55449;PMS5003;41318;58.724;50.180;2023-03-17T08:50:51;14.40;14.40;11.00
55449;PMS5003;41318;58.724;50.180;2023-03-17T08:53:41;16.60;15.20;10.80
55449;PMS5003;41318;58.724;50.180;2023-03-17T08:56:12;77.40;61.80;36.60
55449;PMS5003;41318;58.724;50.180;2023-03-17T08:58:43;35.20;33.80;21.20
55449;PMS5003;41318;58.724;50.180;2023-03-17T09:01:14;20.75;20.75;12.75
55449;PMS5003;41318;58.724;50.180;2023-03-17T09:03:49;15.40;15.40;11.60
55449;PMS5003;41318;58.724;50.180;2023-03-17T09:06:20;16.80;16.00;9.00
55449;PMS5003;41318;58.724;50.180;2023-03-17T09:08:52;17.00;16.60;12.80
55449;PMS5003;41318;58.724;50.180;2023-03-17T09:11:25;19.40;19.40;14.20
55449;PMS5003;41318;58.724;50.180;2023-03-17T09:14:15;14.60;14.60;10.40
55449;PMS5003;41318;58.724;50.180;2023-03-17T09:16:46;22.80;22.80;17.20
55449;PMS5003;41318;58.724;50.180;2023-03-17T09:19:18;24.00;23.60;17.20
55449;PMS5003;41318;58.724;50.180;2023-03-17T09:21:49;26.60;25.40;20.40
55449;PMS5003;41318;58.724;50.180;2023-03-17T09:24:21;28.60;28.60;20.60
55449;PMS5003;41318;58.724;50.180;2023-03-17T09:26:52;25.75;25.75;20.00
55449;PMS5003;41318;58.724;50.180;2023-03-17T09:29:41;36.20;35.40;23.80
55449;PMS5003;41318;58.724;50.180;2023-03-17T09:32:12;42.60;37.00;24.40
55449;PMS5003;41318;58.724;50.180;2023-03-17T09:35:02;30.20;30.20;19.00
55449;PMS5003;41318;58.724;50.180;2023-03-17T09:37:33;25.80;23.60;16.00
55449;PMS5003;41318;58.724;50.180;2023-03-17T09:40:26;15.00;15.00;9.60
55449;PMS5003;41318;58.724;50.180;2023-03-17T09:45:36;13.00;13.00;6.60
55449;PMS5003;41318;58.724;50.180;2023-03-17T09:48:16;15.40;15.40;11.80
55449;PMS5003;41318;58.724;50.180;2023-03-17T09:51:02;15.80;15.40;10.20
55449;PMS5003;41318;58.724;50.180;2023-03-17T09:56:13;27.20;26.20;14.40
55449;PMS5003;41318;58.724;50.180;2023-03-17T09:58:47;24.40;24.40;17.20
55449;PMS5003;41318;58.724;50.180;2023-03-17T10:01:20;34.40;33.00;22.00
55449;PMS5003;41318;58.724;50.180;2023-03-17T10:04:10;42.40;39.00;26.00
55449;PMS5003;41318;58.724;50.180;2023-03-17T10:06:42;40.40;37.60;25.80
55449;PMS5003;41318;58.724;50.180;2023-03-17T10:09:37;28.60;28.60;20.80
55449;PMS5003;41318;58.724;50.180;2023-03-17T10:17:24;11.00;10.00;8.20
55449;PMS5003;41318;58.724;50.180;2023-03-17T10:19:57;13.40;13.00;9.40
55449;PMS5003;41318;58.724;50.180;2023-03-17T10:22:51;14.20;14.20;9.40
55449;PMS5003;41318;58.724;50.180;2023-03-17T10:25:33;31.00;28.00;16.40
55449;PMS5003;41318;58.724;50.180;2023-03-17T10:30:53;19.25;19.25;10.25
55449;PMS5003;41318;58.724;50.180;2023-03-17T10:33:24;26.20;24.20;13.60
55449;PMS5003;41318;58.724;50.180;2023-03-17T10:35:56;34.20;31.80;16.40
55449;PMS5003;41318;58.724;50.180;2023-03-17T10:38:54;27.00;25.40;16.80
55449;PMS5003;41318;58.724;50.180;2023-03-17T10:41:51;11.40;11.40;5.80
55449;PMS5003;41318;58.724;50.180;2023-03-17T10:44:52;9.00;9.00;7.20
55449;PMS5003;41318;58.724;50.180;2023-03-17T10:47:25;12.60;11.40;7.60
55449;PMS5003;41318;58.724;50.180;2023-03-17T10:50:21;31.00;28.20;14.80
55449;PMS5003;41318;58.724;50.180;2023-03-17T10:52:58;23.80;21.60;11.80
55449;PMS5003;41318;58.724;50.180;2023-03-17T10:55:38;71.00;57.00;35.80
55449;PMS5003;41318;58.724;50.180;2023-03-17T11:01:16;24.80;23.60;14.20
55449;PMS5003;41318;58.724;50.180;2023-03-17T11:03:50;37.20;35.40;24.20
55449;PMS5003;41318;58.724;50.180;2023-03-17T11:06:30;17.25;17.00;12.00
55449;PMS5003;41318;58.724;50.180;2023-03-17T11:09:07;17.80;17.80;12.00
55449;PMS5003;41318;58.724;50.180;2023-03-17T11:11:44;26.80;20.80;10.60
55449;PMS5003;41318;58.724;50.180;2023-03-17T11:14:17;41.80;37.00;20.60
55449;PMS5003;41318;58.724;50.180;2023-03-17T11:22:06;42.60;40.20;26.60
55449;PMS5003;41318;58.724;50.180;2023-03-17T11:24:51;35.20;31.40;18.80
55449;PMS5003;41318;58.724;50.180;2023-03-17T11:30:12;58.00;43.60;23.00
55449;PMS5003;41318;58.724;50.180;2023-03-17T11:33:02;59.80;47.40;27.00
55449;PMS5003;41318;58.724;50.180;2023-03-17T11:35:49;72.60;51.60;28.80
55449;PMS5003;41318;58.724;50.180;2023-03-17T11:43:42;70.00;52.50;30.75
55449;PMS5003;41318;58.724;50.180;2023-03-17T11:46:19;76.20;57.00;32.80
55449;PMS5003;41318;58.724;50.180;2023-03-17T11:49:35;51.20;44.40;25.80
55449;PMS5003;41318;58.724;50.180;2023-03-17T11:57:31;59.60;50.20;29.00
55449;PMS5003;41318;58.724;50.180;2023-03-17T12:00:05;57.60;43.20;16.80
55449;PMS5003;41318;58.724;50.180;2023-03-17T12:02:45;58.80;47.80;29.40
55449;PMS5003;41318;58.724;50.180;2023-03-17T12:05:23;60.80;49.00;29.60
55449;PMS5003;41318;58.724;50.180;2023-03-17T12:08:02;58.40;45.20;26.20
55449;PMS5003;41318;58.724;50.180;2023-03-17T12:10:38;57.60;47.20;26.60
55449;PMS5003;41318;58.724;50.180;2023-03-17T12:16:34;52.80;42.00;19.00
55449;PMS5003;41318;58.724;50.180;2023-03-17T12:22:02;23.40;16.00;0.00
55449;PMS5003;41318;58.724;50.180;2023-03-17T12:27:23;45.40;40.80;25.00
55449;PMS5003;41318;58.724;50.180;2023-03-17T12:30:02;51.20;43.80;23.20
55449;PMS5003;41318;58.724;50.180;2023-03-17T12:35:26;39.60;37.80;19.80
55449;PMS5003;41318;58.724;50.180;2023-03-17T12:37:58;70.20;57.60;36.20
55449;PMS5003;41318;58.724;50.180;2023-03-17T12:40:34;70.00;53.20;33.00
55449;PMS5003;41318;58.724;50.180;2023-03-17T12:46:08;62.20;46.80;27.40
55449;PMS5003;41318;58.724;50.180;2023-03-17T12:48:54;57.20;46.60;30.00
55449;PMS5003;41318;58.724;50.180;2023-03-17T12:54:19;56.00;45.00;28.00
55449;PMS5003;41318;58.724;50.180;2023-03-17T12:57:12;46.40;42.60;28.40
55449;PMS5003;41318;58.724;50.180;2023-03-17T13:00:13;32.20;30.40;24.00
55449;PMS5003;41318;58.724;50.180;2023-03-17T13:05:44;24.20;24.00;19.00
55449;PMS5003;41318;58.724;50.180;2023-03-17T13:08:21;22.00;22.00;11.40
55449;PMS5003;41318;58.724;50.180;2023-03-17T13:11:12;77.00;61.40;39.00
55449;PMS5003;41318;58.724;50.180;2023-03-17T13:16:44;18.40;18.40;14.00
55449;PMS5003;41318;58.724;50.180;2023-03-17T13:19:23;32.00;32.00;25.80
55449;PMS5003;41318;58.724;50.180;2023-03-17T13:22:23;35.60;28.80;18.40
55449;PMS5003;41318;58.724;50.180;2023-03-17T13:24:48;28.40;27.60;20.80
55449;PMS5003;41318;58.724;50.180;2023-03-17T13:35:41;29.40;28.00;18.80
55449;PMS5003;41318;58.724;50.180;2023-03-17T13:41:25;76.80;62.60;43.40
55449;PMS5003;41318;58.724;50.180;2023-03-17T13:51:49;49.40;44.80;35.00
55449;PMS5003;41318;58.724;50.180;2023-03-17T13:56:57;80.00;62.80;39.60
55449;PMS5003;41318;58.724;50.180;2023-03-17T14:00:15;109.33;101.67;63.00
55449;PMS5003;41318;58.724;50.180;2023-03-17T14:02:28;27.20;27.20;19.80
55449;PMS5003;41318;58.724;50.180;2023-03-17T14:05:04;35.20;35.20;24.60
55449;PMS5003;41318;58.724;50.180;2023-03-17T14:07:43;65.00;53.40;36.60
55449;PMS5003;41318;58.724;50.180;2023-03-17T14:10:22;41.00;39.60;28.20
55449;PMS5003;41318;58.724;50.180;2023-03-17T14:13:07;39.80;37.00;26.40
55449;PMS5003;41318;58.724;50.180;2023-03-17T14:18:34;94.60;79.00;50.40
55449;PMS5003;41318;58.724;50.180;2023-03-17T14:21:06;62.80;52.20;34.20
55449;PMS5003;41318;58.724;50.180;2023-03-17T14:23:55;83.00;67.60;43.60
55449;PMS5003;41318;58.724;50.180;2023-03-17T14:26:27;63.80;53.40;33.20
55449;PMS5003;41318;58.724;50.180;2023-03-17T14:28:59;57.80;49.80;32.80
55449;PMS5003;41318;58.724;50.180;2023-03-17T14:31:31;39.00;36.80;25.20
55449;PMS5003;41318;58.724;50.180;2023-03-17T14:34:02;13.40;12.40;7.80
55449;PMS5003;41318;58.724;50.180;2023-03-17T14:36:33;49.00;43.40;26.00
55449;PMS5003;41318;58.724;50.180;2023-03-17T14:39:24;16.80;16.40;9.20
55449;PMS5003;41318;58.724;50.180;2023-03-17T14:42:14;52.60;47.40;29.60
55449;PMS5003;41318;58.724;50.180;2023-03-17T14:44:46;50.40;44.20;30.00
55449;PMS5003;41318;58.724;50.180;2023-03-17T14:47:37;72.00;59.40;38.60
55449;PMS5003;41318;58.724;50.180;2023-03-17T14:50:16;38.20;37.40;24.60
55449;PMS5003;41318;58.724;50.180;2023-03-17T14:52:48;35.80;35.80;24.00
55449;PMS5003;41318;58.724;50.180;2023-03-17T14:55:19;67.00;55.40;35.20
55449;PMS5003;41318;58.724;50.180;2023-03-17T14:57:51;43.20;40.80;25.60
55449;PMS5003;41318;58.724;50.180;2023-03-17T15:03:27;62.80;53.00;35.80
55449;PMS5003;41318;58.724;50.180;2023-03-17T15:06:32;45.00;41.40;28.40
55449;PMS5003;41318;58.724;50.180;2023-03-17T15:08:56;24.60;24.60;17.80
55449;PMS5003;41318;58.724;50.180;2023-03-17T15:11:35;69.60;57.00;36.80
55449;PMS5003;41318;58.724;50.180;2023-03-17T15:14:33;35.00;33.40;25.00
55449;PMS5003;41318;58.724;50.180;2023-03-17T15:17:05;43.20;40.60;29.20
55449;PMS5003;41318;58.724;50.180;2023-03-17T15:19:44;61.00;52.20;35.00
55449;PMS5003;41318;58.724;50.180;2023-03-17T15:22:28;70.20;58.60;38.00
55449;PMS5003;41318;58.724;50.180;2023-03-17T15:28:01;60.80;50.60;34.20
55449;PMS5003;41318;58.724;50.180;2023-03-17T15:30:40;63.40;54.40;36.40
55449;PMS5003;41318;58.724;50.180;2023-03-17T15:35:49;81.40;67.00;45.00
55449;PMS5003;41318;58.724;50.180;2023-03-17T15:38:19;74.60;62.00;43.20
55449;PMS5003;41318;58.724;50.180;2023-03-17T15:40:51;38.20;37.20;28.40
55449;PMS5003;41318;58.724;50.180;2023-03-17T15:43:22;28.00;27.60;17.20
55449;PMS5003;41318;58.724;50.180;2023-03-17T15:45:54;10.00;10.00;8.00
55449;PMS5003;41318;58.724;50.180;2023-03-17T15:48:27;37.20;34.40;24.40
55449;PMS5003;41318;58.724;50.180;2023-03-17T15:50:59;21.40;21.40;13.00
55449;PMS5003;41318;58.724;50.180;2023-03-17T15:53:31;45.60;41.00;24.80
55449;PMS5003;41318;58.724;50.180;2023-03-17T15:56:20;13.60;12.20;10.80
55449;PMS5003;41318;58.724;50.180;2023-03-17T15:58:51;56.60;48.60;34.00
55449;PMS5003;41318;58.724;50.180;2023-03-17T16:01:22;37.50;36.00;24.25
55449;PMS5003;41318;58.724;50.180;2023-03-17T16:03:53;63.75;54.25;34.25
55449;PMS5003;41318;58.724;50.180;2023-03-17T16:06:24;25.50;24.50;16.25
55449;PMS5003;41318;58.724;50.180;2023-03-17T16:08:55;16.25;16.25;9.25
55449;PMS5003;41318;58.724;50.180;2023-03-17T16:11:27;26.50;26.50;17.25
55449;PMS5003;41318;58.724;50.180;2023-03-17T16:13:59;71.00;57.00;37.60
55449;PMS5003;41318;58.724;50.180;2023-03-17T16:16:40;21.60;21.60;13.20
55449;PMS5003;41318;58.724;50.180;2023-03-17T16:19:17;16.20;16.20;11.60
55449;PMS5003;41318;58.724;50.180;2023-03-17T16:21:52;14.00;14.00;8.60
55449;PMS5003;41318;58.724;50.180;2023-03-17T16:24:24;12.20;12.20;9.80
55449;PMS5003;41318;58.724;50.180;2023-03-17T16:26:56;29.40;27.20;19.40
55449;PMS5003;41318;58.724;50.180;2023-03-17T16:29:27;1.00;1.00;0.50
55449;PMS5003;41318;58.724;50.180;2023-03-17T16:31:59;13.80;13.80;11.40
55449;PMS5003;41318;58.724;50.180;2023-03-17T16:34:30;21.75;21.75;17.75